PWSweather.com
Personal Weather Stations
Station Observations
IROGLAN40
AalgaardNO 4330

AalgaardNO 4330

Lat: 58.773, Lon: 5.846

Elevation: 326

Station Type: Davis Vanatge Pro2

Latest ConditionsUpdated 6:20:02 AM GMT+01:01 Tuesday, Feb 28, 2017
Currently Today's Max Today's Min Today's Average
Temperature 39.2°F4.0°C 40.8°F4.9°C 39.2°F4.0°C 39.9°F4.4°C
Dew Point 36.2°F2.3°C 37.2°F2.9°C 36.1°F2.3°C 36.6°F2.6°C
Winds 3.5 mph SE5.6 kmh SE 9.2 mph SE14.8 kmh SE - 5.6 mph 9.0 kmh
Wind Gusts 6.9 mph11.1 kmh 13.8 mph22.2 kmh - -
Humidity 89% 89% 86% 88%
Pressure 28.69 in971.6 mb 28.89 in978.3 mb 28.68 in971.2 mb -
Precipitation - 0.07 in1.8 mm - -
Hour Temp Dew Point Humidity Winds Wind Gusts Pressure Precip Precip Rate Daily Precip Total
06:20 AM 39.2°F4.0°C 36.2°F2.3°C 89% 3.5 mph SE5.6 kmh SE 6.9 mph11.1 kmh 28.69 in971.6 mb - 0.00 in0.0 mm 0.07 in1.8 mm
06:10 AM 39.4°F4.1°C 36.5°F2.5°C 89% 5.8 mph SE9.3 kmh SE 8.1 mph13.0 kmh 28.68 in971.2 mb - 0.00 in0.0 mm 0.07 in1.8 mm
06:00 AM 39.6°F4.2°C 36.6°F2.6°C 89% 3.5 mph SSE5.6 kmh SSE 9.2 mph14.8 kmh 28.68 in971.2 mb - 0.00 in0.0 mm 0.07 in1.8 mm
05:50 AM 39.5°F4.2°C 36.5°F2.5°C 89% 6.9 mph SE11.1 kmh SE 11.5 mph18.5 kmh 28.68 in971.2 mb - 0.00 in0.0 mm 0.07 in1.8 mm
05:40 AM 39.5°F4.2°C 36.5°F2.5°C 89% 6.9 mph SE11.1 kmh SE 8.1 mph13.0 kmh 28.69 in971.6 mb - 0.00 in0.0 mm 0.07 in1.8 mm
05:30 AM 39.5°F4.2°C 36.5°F2.5°C 89% 6.9 mph SE11.1 kmh SE 11.5 mph18.5 kmh 28.69 in971.6 mb - 0.00 in0.0 mm 0.07 in1.8 mm
05:20 AM 39.6°F4.2°C 36.6°F2.6°C 89% 5.8 mph SE9.3 kmh SE 11.5 mph18.5 kmh 28.69 in971.6 mb - 0.00 in0.0 mm 0.07 in1.8 mm
05:10 AM 39.6°F4.2°C 36.6°F2.6°C 89% 6.9 mph SE11.1 kmh SE 12.7 mph20.4 kmh 28.69 in971.6 mb - 0.01 in0.3 mm 0.07 in1.8 mm
05:00 AM 39.4°F4.1°C 36.4°F2.4°C 89% 6.9 mph SE11.1 kmh SE 10.4 mph16.7 kmh 28.70 in971.9 mb - 0.00 in0.0 mm 0.06 in1.5 mm
04:50 AM 39.4°F4.1°C 36.4°F2.4°C 89% 5.8 mph E9.3 kmh E 8.1 mph13.0 kmh 28.69 in971.6 mb - 0.00 in0.0 mm 0.06 in1.5 mm
04:40 AM 39.4°F4.1°C 36.1°F2.3°C 88% 2.3 mph SE3.7 kmh SE 4.6 mph7.4 kmh 28.70 in971.9 mb - 0.01 in0.3 mm 0.06 in1.5 mm
04:30 AM 39.4°F4.1°C 36.1°F2.3°C 88% 6.9 mph ESE11.1 kmh ESE 9.2 mph14.8 kmh 28.70 in971.9 mb - 0.00 in0.0 mm 0.06 in1.5 mm
04:20 AM 39.4°F4.1°C 36.2°F2.3°C 88% 6.9 mph SE11.1 kmh SE 13.8 mph22.2 kmh 28.70 in971.9 mb - 0.00 in0.0 mm 0.06 in1.5 mm
04:10 AM 39.4°F4.1°C 36.1°F2.3°C 88% 5.8 mph SE9.3 kmh SE 11.5 mph18.5 kmh 28.70 in971.9 mb - 0.01 in0.3 mm 0.06 in1.5 mm
04:00 AM 39.4°F4.1°C 36.1°F2.3°C 88% 3.5 mph SE5.6 kmh SE 4.6 mph7.4 kmh 28.71 in972.2 mb - 0.00 in0.0 mm 0.05 in1.3 mm
03:50 AM 39.5°F4.2°C 36.2°F2.3°C 88% 5.8 mph SE9.3 kmh SE 8.1 mph13.0 kmh 28.71 in972.2 mb - 0.01 in0.3 mm 0.05 in1.3 mm
03:40 AM 39.5°F4.2°C 36.2°F2.3°C 88% 4.6 mph ESE7.4 kmh ESE 9.2 mph14.8 kmh 28.72 in972.6 mb - 0.00 in0.0 mm 0.04 in1.0 mm
03:30 AM 39.5°F4.2°C 36.2°F2.3°C 88% 6.9 mph SE11.1 kmh SE 10.4 mph16.7 kmh 28.73 in972.9 mb - 0.01 in0.3 mm 0.04 in1.0 mm
03:20 AM 39.6°F4.2°C 36.3°F2.4°C 88% 6.9 mph ESE11.1 kmh ESE 11.5 mph18.5 kmh 28.73 in972.9 mb - 0.00 in0.0 mm 0.03 in0.8 mm
03:10 AM 39.8°F4.3°C 36.2°F2.3°C 87% 9.2 mph SE14.8 kmh SE 13.8 mph22.2 kmh 28.74 in973.2 mb - 0.01 in0.3 mm 0.03 in0.8 mm
03:00 AM 39.9°F4.4°C 36.4°F2.4°C 87% 8.1 mph SE13.0 kmh SE 9.2 mph14.8 kmh 28.75 in973.6 mb - 0.01 in0.3 mm 0.02 in0.5 mm
02:50 AM 40.2°F4.6°C 36.7°F2.6°C 87% 8.1 mph SE13.0 kmh SE 10.4 mph16.7 kmh 28.76 in973.9 mb - 0.00 in0.0 mm 0.02 in0.5 mm
02:40 AM 40.4°F4.7°C 36.5°F2.5°C 86% 3.5 mph SE5.6 kmh SE 6.9 mph11.1 kmh 28.76 in973.9 mb - 0.00 in0.0 mm 0.02 in0.5 mm
02:30 AM 40.4°F4.7°C 36.5°F2.5°C 86% 5.8 mph SE9.3 kmh SE 10.4 mph16.7 kmh 28.77 in974.3 mb - 0.00 in0.0 mm 0.02 in0.5 mm
02:20 AM 40.4°F4.7°C 36.5°F2.5°C 86% 8.1 mph SE13.0 kmh SE 12.7 mph20.4 kmh 28.78 in974.6 mb - 0.01 in0.3 mm 0.02 in0.5 mm
02:10 AM 40.5°F4.7°C 36.7°F2.6°C 86% 4.6 mph SE7.4 kmh SE 9.2 mph14.8 kmh 28.79 in974.9 mb - 0.00 in0.0 mm 0.01 in0.3 mm
02:00 AM 40.7°F4.8°C 36.8°F2.7°C 86% 8.1 mph SE13.0 kmh SE 13.8 mph22.2 kmh 28.79 in974.9 mb - 0.00 in0.0 mm 0.01 in0.3 mm
01:50 AM 40.8°F4.9°C 36.9°F2.7°C 86% 3.5 mph ESE5.6 kmh ESE 9.2 mph14.8 kmh 28.80 in975.3 mb - 0.00 in0.0 mm 0.01 in0.3 mm
01:40 AM 40.8°F4.9°C 36.9°F2.7°C 86% 4.6 mph SE7.4 kmh SE 9.2 mph14.8 kmh 28.81 in975.6 mb - 0.01 in0.3 mm 0.01 in0.3 mm
01:30 AM 40.6°F4.8°C 37.0°F2.8°C 87% 5.8 mph SE9.3 kmh SE 9.2 mph14.8 kmh 28.81 in975.6 mb - 0.00 in0.0 mm 0.00 in0.0 mm
01:20 AM 40.4°F4.7°C 36.8°F2.7°C 87% 3.5 mph SE5.6 kmh SE 9.2 mph14.8 kmh 28.82 in976.0 mb - 0.00 in0.0 mm 0.00 in0.0 mm
01:10 AM 40.4°F4.7°C 36.8°F2.7°C 87% 2.3 mph SE3.7 kmh SE 3.5 mph5.6 kmh 28.83 in976.3 mb - 0.00 in0.0 mm 0.00 in0.0 mm
01:00 AM 40.5°F4.7°C 36.9°F2.7°C 87% 3.5 mph SE5.6 kmh SE 4.6 mph7.4 kmh 28.84 in976.6 mb - 0.00 in0.0 mm 0.00 in0.0 mm
12:50 AM 40.5°F4.7°C 37.2°F2.9°C 88% 3.5 mph SE5.6 kmh SE 6.9 mph11.1 kmh 28.84 in976.6 mb - 0.00 in0.0 mm 0.00 in0.0 mm
12:40 AM 40.4°F4.7°C 37.1°F2.8°C 88% 4.6 mph SE7.4 kmh SE 10.4 mph16.7 kmh 28.85 in977.0 mb - 0.00 in0.0 mm 0.00 in0.0 mm
12:30 AM 40.3°F4.6°C 37.0°F2.8°C 88% 5.8 mph SE9.3 kmh SE 10.4 mph16.7 kmh 28.86 in977.3 mb - 0.00 in0.0 mm 0.00 in0.0 mm
12:20 AM 40.3°F4.6°C 37.0°F2.8°C 88% 5.8 mph SE9.3 kmh SE 11.5 mph18.5 kmh 28.87 in977.7 mb - 0.00 in0.0 mm 0.00 in0.0 mm
12:10 AM 40.3°F4.6°C 37.0°F2.8°C 88% 8.1 mph SE13.0 kmh SE 11.5 mph18.5 kmh 28.88 in978.0 mb - 0.00 in0.0 mm 0.00 in0.0 mm
12:00 AM 40.3°F4.6°C 37.0°F2.8°C 88% 4.6 mph SE7.4 kmh SE 8.1 mph13.0 kmh 28.89 in978.3 mb - 0.00 in0.0 mm 0.00 in0.0 mm